createdAt,value
2022-10-22T05:59:40.750Z,15.33
2022-10-22T06:02:12.014Z,15.56
2022-10-22T06:04:39.677Z,15.52
2022-10-22T06:07:09.307Z,15.61
2022-10-22T06:12:11.096Z,15.56
2022-10-22T06:14:38.664Z,15.77
2022-10-22T06:17:06.327Z,15.83
2022-10-22T06:19:34.005Z,16.02
2022-10-22T06:22:01.709Z,16.06
2022-10-22T06:24:29.329Z,16.14
2022-10-22T06:26:57.031Z,16.27
2022-10-22T06:29:24.699Z,16.18
2022-10-22T06:31:52.360Z,16.24
2022-10-22T06:34:20.189Z,16.13
2022-10-22T06:36:47.941Z,16.36
2022-10-22T06:39:16.441Z,16.61
2022-10-22T06:41:44.295Z,16.62
2022-10-22T06:44:15.997Z,16.57
2022-10-22T06:46:43.823Z,16.84
2022-10-22T06:49:13.861Z,17.03
2022-10-22T06:51:41.745Z,17.14
2022-10-22T06:54:09.320Z,17.27
2022-10-22T06:56:37.362Z,17.19
2022-10-22T06:59:05.310Z,17.14
2022-10-22T07:01:33.952Z,17.40
2022-10-22T07:04:02.061Z,17.24
2022-10-22T07:06:29.814Z,17.34
2022-10-22T07:08:58.317Z,17.92
2022-10-22T07:11:28.110Z,18.16
2022-10-22T07:13:56.798Z,17.73
2022-10-22T07:16:28.153Z,18.01
2022-10-22T07:19:01.212Z,18.29
2022-10-22T07:21:28.962Z,18.18
2022-10-22T07:23:56.939Z,18.21
2022-10-22T07:26:25.565Z,18.87
2022-10-22T07:28:53.239Z,18.85
2022-10-22T07:31:20.932Z,19.14
2022-10-22T07:33:48.610Z,19.00
2022-10-22T07:36:18.130Z,19.79
2022-10-22T07:38:52.292Z,20.63
2022-10-22T07:41:20.081Z,21.17
2022-10-22T07:43:47.655Z,20.54
2022-10-22T07:46:15.665Z,21.05
2022-10-22T07:48:43.549Z,20.15
2022-10-22T07:51:11.309Z,20.37
2022-10-22T07:53:39.095Z,20.02
2022-10-22T07:56:07.100Z,21.04
2022-10-22T07:58:34.741Z,20.80
2022-10-22T08:01:02.835Z,20.60
2022-10-22T08:03:30.520Z,21.34
2022-10-22T08:05:58.396Z,21.69
2022-10-22T08:08:29.717Z,21.94
2022-10-22T08:10:59.570Z,21.00
2022-10-22T08:13:28.564Z,21.80
2022-10-22T08:15:57.878Z,21.20
2022-10-22T08:18:25.891Z,21.17
2022-10-22T08:20:53.674Z,20.79
2022-10-22T08:23:25.860Z,20.64
2022-10-22T08:25:56.121Z,20.84
2022-10-22T08:28:23.784Z,21.98
2022-10-22T08:30:51.549Z,20.67
2022-10-22T08:33:19.323Z,20.50
2022-10-22T08:35:51.037Z,21.05
2022-10-22T08:38:18.786Z,21.73
2022-10-22T08:40:54.318Z,21.34
2022-10-22T08:43:59.318Z,20.61
2022-10-22T08:46:52.685Z,21.35
2022-10-22T08:49:22.183Z,22.08
2022-10-22T08:51:49.793Z,21.85
2022-10-22T08:54:17.282Z,20.75
2022-10-22T08:56:46.134Z,20.73
2022-10-22T08:59:23.439Z,21.36
2022-10-22T09:01:52.013Z,20.69
2022-10-22T09:04:25.602Z,20.75
2022-10-22T09:06:54.454Z,20.29
2022-10-22T09:09:22.271Z,20.92
2022-10-22T09:11:51.052Z,20.73
2022-10-22T09:14:22.970Z,20.44
2022-10-22T09:16:50.636Z,20.38
2022-10-22T09:19:40.223Z,21.19
2022-10-22T09:22:25.908Z,21.57
2022-10-22T09:25:00.174Z,21.37
2022-10-22T09:27:30.035Z,21.44
2022-10-22T09:29:57.952Z,21.24
2022-10-22T09:32:26.070Z,21.65
2022-10-22T09:34:56.364Z,21.77
2022-10-22T09:37:28.620Z,21.50
2022-10-22T09:39:57.107Z,21.29
2022-10-22T09:42:24.727Z,21.09
2022-10-22T09:44:57.890Z,21.09
2022-10-22T09:47:42.758Z,21.17
2022-10-22T09:50:20.827Z,21.43
2022-10-22T09:52:59.020Z,21.23
2022-10-22T09:55:26.949Z,21.36
2022-10-22T09:57:55.905Z,21.67
2022-10-22T10:00:25.260Z,21.46
2022-10-22T10:02:59.925Z,21.56
2022-10-22T10:05:34.708Z,21.95
2022-10-22T10:08:08.556Z,22.04
2022-10-22T10:11:00.094Z,21.56
2022-10-22T10:13:54.387Z,21.43
2022-10-22T10:16:40.563Z,21.77
2022-10-22T10:19:23.777Z,21.59
2022-10-22T10:22:09.940Z,21.45
2022-10-22T10:25:02.635Z,21.62
2022-10-22T10:27:53.549Z,21.82
2022-10-22T10:30:24.133Z,21.92
2022-10-22T10:33:09.993Z,21.89
2022-10-22T10:36:12.382Z,21.87
2022-10-22T10:38:58.365Z,22.07
2022-10-22T10:41:47.344Z,22.06
2022-10-22T10:44:22.963Z,21.89
2022-10-22T10:47:25.985Z,21.74
2022-10-22T10:49:54.769Z,21.70
2022-10-22T10:52:40.241Z,21.56
2022-10-22T10:55:19.190Z,21.80
2022-10-22T10:58:11.062Z,21.90
2022-10-22T11:00:47.515Z,21.67
2022-10-22T11:03:30.338Z,21.71
2022-10-22T11:06:11.434Z,22.00
2022-10-22T11:08:43.594Z,22.09
2022-10-22T11:11:21.224Z,22.09
2022-10-22T11:13:59.721Z,22.28
2022-10-22T11:16:58.836Z,22.41
2022-10-22T11:20:01.557Z,22.80
2022-10-22T11:23:17.439Z,22.51
2022-10-22T11:25:48.034Z,22.45
2022-10-22T11:28:29.321Z,22.08
2022-10-22T11:30:58.478Z,22.19
2022-10-22T11:33:28.339Z,22.47
2022-10-22T11:35:56.338Z,22.46
2022-10-22T11:38:25.458Z,22.33
2022-10-22T11:41:01.170Z,22.45
2022-10-22T11:43:30.156Z,22.73
2022-10-22T11:46:03.773Z,22.31
2022-10-22T11:48:36.279Z,22.42
2022-10-22T11:51:04.289Z,22.46
2022-10-22T11:53:35.796Z,22.27
2022-10-22T11:56:07.825Z,21.99
2022-10-22T11:58:39.544Z,22.19
2022-10-22T12:01:10.215Z,22.65
2022-10-22T12:04:04.653Z,22.17
2022-10-22T12:06:54.345Z,22.06
2022-10-22T12:09:24.931Z,22.34
2022-10-22T12:11:52.655Z,22.13
2022-10-22T12:14:28.129Z,22.20
2022-10-22T12:16:58.002Z,22.27
2022-10-22T12:19:42.628Z,22.46
2022-10-22T12:22:18.904Z,22.52
2022-10-22T12:24:48.176Z,22.36
2022-10-22T12:27:22.627Z,22.46
2022-10-22T12:29:55.653Z,22.70
2022-10-22T12:32:23.876Z,22.65
2022-10-22T12:34:52.299Z,22.69
2022-10-22T12:37:20.036Z,22.51
2022-10-22T12:39:47.598Z,22.40
2022-10-22T12:42:17.399Z,22.56
2022-10-22T12:44:48.483Z,22.56
2022-10-22T12:47:18.056Z,22.85
2022-10-22T12:49:49.715Z,22.80
2022-10-22T12:52:20.574Z,22.58
2022-10-22T12:54:49.525Z,22.64
2022-10-22T12:57:17.977Z,22.72
2022-10-22T12:59:49.960Z,22.62
2022-10-22T13:02:24.076Z,22.57
2022-10-22T13:05:12.587Z,22.43
2022-10-22T13:07:42.577Z,22.48
2022-10-22T13:10:26.467Z,22.75
2022-10-22T13:12:58.003Z,22.89
2022-10-22T13:15:28.770Z,22.94
2022-10-22T13:18:04.014Z,22.82
2022-10-22T13:20:31.947Z,22.80
2022-10-22T13:23:00.607Z,22.64
2022-10-22T13:25:32.993Z,22.66
2022-10-22T13:28:13.484Z,22.68
2022-10-22T13:30:51.716Z,22.77
2022-10-22T13:33:37.244Z,22.85
2022-10-22T13:36:05.386Z,22.93
2022-10-22T13:38:32.963Z,22.94
2022-10-22T13:41:00.764Z,22.61
2022-10-22T13:43:28.366Z,22.56
2022-10-22T13:45:57.998Z,22.58
2022-10-22T13:48:26.265Z,22.44
2022-10-22T13:50:54.202Z,22.52
2022-10-22T13:53:23.416Z,22.36
2022-10-22T13:55:51.378Z,22.16
2022-10-22T13:58:26.327Z,22.01
2022-10-22T14:00:57.148Z,21.99
2022-10-22T14:03:27.387Z,22.01
2022-10-22T14:05:55.011Z,22.02
2022-10-22T14:08:23.439Z,22.13
2022-10-22T14:10:51.203Z,22.19
2022-10-22T14:13:19.565Z,22.25
2022-10-22T14:15:48.552Z,22.14
2022-10-22T14:18:24.262Z,22.15
2022-10-22T14:20:56.526Z,22.13
2022-10-22T14:23:28.775Z,22.01
2022-10-22T14:25:56.740Z,22.02
2022-10-22T14:28:24.364Z,21.98
2022-10-22T14:30:52.216Z,21.89
2022-10-22T14:33:21.088Z,21.88
2022-10-22T14:35:49.187Z,21.85
2022-10-22T14:38:17.367Z,21.81
2022-10-22T14:40:45.285Z,21.73
2022-10-22T14:43:33.446Z,21.63
2022-10-22T14:46:01.078Z,21.55
2022-10-22T14:48:28.610Z,21.60
2022-10-22T14:50:56.482Z,21.57
2022-10-22T14:53:24.235Z,21.43
2022-10-22T14:55:55.583Z,21.23
2022-10-22T14:58:23.354Z,21.18
2022-10-22T15:00:50.969Z,21.18
2022-10-22T15:03:19.047Z,21.14
2022-10-22T15:05:46.676Z,21.04
2022-10-22T15:08:14.753Z,20.86
2022-10-22T15:10:42.839Z,20.78
2022-10-22T15:13:10.735Z,20.69
2022-10-22T15:15:41.453Z,20.67
2022-10-22T15:18:09.184Z,20.61
2022-10-22T15:20:36.802Z,20.57
2022-10-22T15:23:04.537Z,20.46
2022-10-22T15:25:32.271Z,20.38
2022-10-22T15:28:03.392Z,20.29
2022-10-22T15:30:36.822Z,20.25
2022-10-22T15:33:04.451Z,20.15
2022-10-22T15:35:32.222Z,20.10
2022-10-22T15:37:59.866Z,20.02
2022-10-22T15:50:08.906Z,19.71
2022-10-22T15:52:37.086Z,19.65
2022-10-22T15:55:07.131Z,19.59
2022-10-22T15:57:34.923Z,19.53
2022-10-22T16:00:03.433Z,19.49
2022-10-22T16:02:40.133Z,19.44
2022-10-22T16:05:08.245Z,19.37
2022-10-22T16:07:35.942Z,19.31
2022-10-22T16:10:03.967Z,19.25
2022-10-22T16:12:51.788Z,19.20
2022-10-22T16:15:19.605Z,19.14
2022-10-22T16:17:47.174Z,19.07
2022-10-22T16:20:33.710Z,19.04
2022-10-22T16:23:01.370Z,18.98
2022-10-22T16:25:29.711Z,18.88
2022-10-22T16:27:57.340Z,18.75
2022-10-22T16:30:24.859Z,18.68
2022-10-22T16:32:53.086Z,18.66
2022-10-22T16:35:20.690Z,18.55
2022-10-22T16:37:48.358Z,18.57
2022-10-22T16:40:16.217Z,18.54
2022-10-22T16:43:02.982Z,18.51
2022-10-22T16:45:31.075Z,18.54
2022-10-22T16:48:18.172Z,18.23
2022-10-22T16:50:45.873Z,18.30
2022-10-22T16:53:13.465Z,18.18
2022-10-22T16:55:41.508Z,18.33
2022-10-22T16:58:09.179Z,18.42
